Main page
METAR-TAF:

METAR-TAF

Airports :

La Chinita International Airport

Maracaibo, Venezuela

latitude: 10-34N, longitude: 071-44W, elevation: 66 m

Current weather observation

The report was made 35 minutes ago, at 20:02 UTC
Temperature
Pressure

METAR: SVMC 152002Z AUTO NIL

Time: 16:37 (20:37 UTC)

Forecast

The report was made 4 hours and 37 minutes ago, at 16:00 UTC
Forecast valid from 15 at 18 UTC to 16 at 18 UTC
Wind 7 kt from the West/Southwest
Visibility 10 km or more
Scattered clouds at a height of 1600 ft
Temporary
from 15 at 18 UTC to 15 at 22 UTC
Wind 8 kt from the South
Visibility 10 km or more

TAF: SVMC 151600Z 1518/1618 24007KT 9999 SCT016 TX33/19Z TN23/08Z TEMPO 1518/1522 19008KT 9999 BNK016

Weather observations and forecasts of more than 4000 airports (METAR and TAF reports).

The available stations are represented by yellow and red dots on the map.

Hover mouse over dot to see the name of the station.

Then click to see weather observations and forecasts.

To change the map : click on the green buttons with a black cross to zoom in, on the green button with a dash to zoom out, or on the green arrows for adjacent maps.


METAR-TAF: